Time;durP1;ratioP1;P1;durP2;ratioP2;P2;SDS_P1;SDS_P2;PMS_P1;PMS_P2;Temp;Humidity;BMP_temperature;BMP_pressure;BME280_temperature;BME280_humidity;BME280_pressure;Samples;Min_cycle;Max_cycle;Signal;HPM_P1;HPM_P2
2024/01/01 00:01:18;;;;;;;1.10;0.95;;;16.60;55.10;;;;;;6155311;23;20194;-83
2024/01/01 00:03:45;;;;;;;0.80;0.80;;;16.70;55.20;;;;;;6105762;23;20563;-82
2024/01/01 00:08:36;;;;;;;1.10;1.00;;;16.60;55.10;;;;;;6215377;22;20640;-82
2024/01/01 00:11:02;;;;;;;1.23;0.90;;;16.60;55.10;;;;;;6164048;23;20189;-83
2024/01/01 00:13:28;;;;;;;1.10;1.00;;;16.60;55.20;;;;;;6189830;23;20134;-82
2024/01/01 00:15:54;;;;;;;1.10;1.00;;;16.60;55.00;;;;;;6189690;23;20135;-84
2024/01/01 00:18:21;;;;;;;1.20;1.10;;;16.60;55.10;;;;;;6165052;23;20485;-85
2024/01/01 00:20:48;;;;;;;1.95;1.00;;;16.60;55.30;;;;;;6116067;23;20189;-85
2024/01/01 00:23:13;;;;;;;1.52;1.10;;;16.50;55.20;;;;;;6139112;23;20157;-85
2024/01/01 00:25:39;;;;;;;1.10;1.00;;;16.60;55.30;;;;;;6163999;23;20230;-83
2024/01/01 00:28:06;;;;;;;1.10;1.00;;;16.50;55.20;;;;;;6140417;23;20574;-85
2024/01/01 00:30:33;;;;;;;1.20;1.10;;;16.60;55.20;;;;;;6165901;23;20146;-85
2024/01/01 00:32:59;;;;;;;0.82;0.82;;;16.70;55.10;;;;;;6138555;23;20153;-82
2024/01/01 00:35:25;;;;;;;1.42;1.20;;;16.60;55.20;;;;;;6189741;23;20213;-84
2024/01/01 00:37:57;;;;;;;0.93;0.90;;;16.60;55.20;;;;;;6164415;23;20143;-84
2024/01/01 00:40:23;;;;;;;1.20;1.10;;;16.60;55.90;;;;;;6216132;23;20162;-84
2024/01/01 00:42:49;;;;;;;1.20;1.10;;;16.60;55.20;;;;;;6166011;23;20130;-83
2024/01/01 00:45:15;;;;;;;0.85;0.85;;;16.60;55.30;;;;;;6189649;23;20180;-83
2024/01/01 00:47:41;;;;;;;1.33;1.23;;;16.60;55.20;;;;;;6164897;23;20157;-84
2024/01/01 00:50:07;;;;;;;1.63;1.30;;;16.60;55.30;;;;;;6215743;23;20138;-84
2024/01/01 00:52:33;;;;;;;1.05;0.95;;;16.60;55.10;;;;;;6190079;23;20184;-83
2024/01/01 00:55:00;;;;;;;1.40;1.25;;;16.60;55.90;;;;;;6163861;23;20157;-84
2024/01/01 00:57:26;;;;;;;1.13;1.02;;;16.60;55.20;;;;;;6189037;23;20142;-82
2024/01/01 00:59:54;;;;;;;1.15;0.98;;;16.60;55.10;;;;;;6188494;23;20162;-83
2024/01/01 01:02:20;;;;;;;1.15;1.05;;;16.60;55.00;;;;;;6090533;23;20244;-82
2024/01/01 01:04:47;;;;;;;1.10;1.00;;;16.60;55.10;;;;;;6163587;23;20237;-85
2024/01/01 01:07:14;;;;;;;1.52;1.23;;;16.60;55.00;;;;;;6164362;23;20182;-84
2024/01/01 01:12:05;;;;;;;1.00;0.90;;;16.50;55.00;;;;;;6178863;23;20202;-84
2024/01/01 01:14:31;;;;;;;1.27;1.15;;;16.60;55.10;;;;;;6159017;23;20210;-84
2024/01/01 01:16:58;;;;;;;1.30;1.20;;;16.60;55.20;;;;;;6159693;23;20158;-82
2024/01/01 01:19:24;;;;;;;1.08;0.98;;;16.60;55.10;;;;;;6108733;23;20185;-81
2024/01/01 01:21:49;;;;;;;1.10;0.98;;;16.50;55.10;;;;;;6185114;23;20131;-83
2024/01/01 01:24:18;;;;;;;1.33;1.20;;;16.60;55.20;;;;;;6184964;23;20178;-83
2024/01/01 01:26:44;;;;;;;1.13;1.02;;;16.60;55.20;;;;;;6158935;23;20178;-84
2024/01/01 01:29:11;;;;;;;1.35;1.00;;;16.60;55.10;;;;;;6158709;23;20622;-84
2024/01/01 01:31:37;;;;;;;1.38;1.25;;;16.60;55.10;;;;;;6183827;23;20142;-85
2024/01/01 01:34:03;;;;;;;1.20;1.10;;;16.60;55.20;;;;;;6182529;23;20134;-83
2024/01/01 01:36:28;;;;;;;1.05;0.98;;;16.60;55.10;;;;;;6158244;23;20617;-83
2024/01/01 01:38:54;;;;;;;1.27;1.17;;;16.50;55.10;;;;;;6158414;23;20154;-84
2024/01/01 01:41:22;;;;;;;1.10;1.00;;;16.50;55.00;;;;;;6184388;23;20249;-84
2024/01/01 01:43:48;;;;;;;1.35;1.02;;;16.60;55.10;;;;;;6184738;23;20601;-83
2024/01/01 01:46:13;;;;;;;1.35;1.20;;;16.60;55.00;;;;;;6186026;23;20135;-83
2024/01/01 01:48:39;;;;;;;1.23;0.98;;;16.60;55.20;;;;;;6183780;23;20467;-84
2024/01/01 01:51:05;;;;;;;1.30;1.20;;;16.60;55.00;;;;;;6159571;23;20143;-83
2024/01/01 01:53:31;;;;;;;1.50;1.30;;;16.60;55.10;;;;;;6159885;23;20205;-84
2024/01/01 01:56:02;;;;;;;1.25;1.13;;;16.60;55.10;;;;;;6157243;23;20230;-83
2024/01/01 01:58:28;;;;;;;1.30;1.20;;;16.50;55.10;;;;;;6159432;23;20444;-83
2024/01/01 02:00:54;;;;;;;1.10;1.00;;;16.50;55.00;;;;;;6158671;23;20265;-82
2024/01/01 02:03:21;;;;;;;1.40;1.30;;;16.50;55.10;;;;;;6157657;23;20138;-83
2024/01/01 02:05:47;;;;;;;1.58;1.30;;;16.50;55.10;;;;;;6183286;23;20628;-85
2024/01/01 02:08:14;;;;;;;1.35;1.25;;;16.60;55.10;;;;;;6158635;23;20482;-84
2024/01/01 02:10:39;;;;;;;1.13;1.02;;;16.60;55.00;;;;;;6182014;23;20227;-82
2024/01/01 02:13:19;;;;;;;1.13;1.02;;;16.50;55.10;;;;;;6182361;23;20224;-82
2024/01/01 02:15:45;;;;;;;1.38;1.20;;;16.50;55.00;;;;;;6183534;23;20134;-83
2024/01/01 02:18:11;;;;;;;1.10;1.00;;;16.50;55.10;;;;;;6182985;23;20522;-83
2024/01/01 02:20:36;;;;;;;1.17;1.08;;;16.50;55.10;;;;;;6183987;23;20182;-83
2024/01/01 02:23:02;;;;;;;1.00;0.90;;;16.60;55.10;;;;;;6158481;23;20178;-85
2024/01/01 02:25:28;;;;;;;1.20;1.10;;;16.50;55.00;;;;;;6181934;23;20159;-83
2024/01/01 02:27:54;;;;;;;1.08;0.98;;;16.50;55.00;;;;;;6133963;23;20151;-81
2024/01/01 02:30:20;;;;;;;1.25;1.15;;;16.50;55.00;;;;;;6183216;23;20466;-84
2024/01/01 02:32:46;;;;;;;1.10;1.00;;;16.50;54.80;;;;;;6159600;23;20456;-82
2024/01/01 02:35:12;;;;;;;1.52;1.35;;;16.60;55.00;;;;;;6184016;23;20534;-85
2024/01/01 02:37:38;;;;;;;1.70;1.23;;;16.50;55.10;;;;;;6185293;23;20146;-85
2024/01/01 02:40:05;;;;;;;1.02;0.90;;;16.50;55.10;;;;;;6184520;23;20533;-85
2024/01/01 02:42:34;;;;;;;1.20;1.10;;;16.50;55.00;;;;;;6158235;23;20585;-84
2024/01/01 02:45:00;;;;;;;1.20;1.10;;;16.50;55.10;;;;;;6132152;23;20155;-84
2024/01/01 02:47:26;;;;;;;1.20;1.10;;;16.50;54.90;;;;;;6108694;23;20181;-85
2024/01/01 02:49:51;;;;;;;1.40;1.17;;;16.50;55.10;;;;;;6133971;23;20590;-82
2024/01/01 02:52:17;;;;;;;1.30;1.20;;;16.50;55.70;;;;;;6158888;23;20581;-82
2024/01/01 02:54:43;;;;;;;1.45;1.20;;;16.50;55.20;;;;;;6159104;23;20136;-83
2024/01/01 02:57:09;;;;;;;1.10;1.00;;;16.50;55.10;;;;;;6183049;23;20547;-84
2024/01/01 02:59:35;;;;;;;1.20;1.10;;;16.40;54.90;;;;;;6159002;23;20170;-84
2024/01/01 03:02:01;;;;;;;1.35;1.25;;;16.50;55.00;;;;;;6183088;23;20185;-85
2024/01/01 03:04:31;;;;;;;1.20;1.10;;;16.50;55.00;;;;;;6182386;23;20177;-85
2024/01/01 03:06:57;;;;;;;1.40;1.25;;;16.50;54.90;;;;;;6158260;23;20185;-85
2024/01/01 03:09:23;;;;;;;1.30;1.20;;;16.50;54.90;;;;;;6133474;23;20143;-82
2024/01/01 03:11:49;;;;;;;1.23;1.13;;;16.50;55.00;;;;;;6182532;23;20197;-83
2024/01/01 03:14:16;;;;;;;1.35;1.20;;;16.40;55.00;;;;;;6158082;23;20436;-83
2024/01/01 03:16:43;;;;;;;1.10;1.00;;;16.50;55.00;;;;;;6107523;23;20504;-83
2024/01/01 03:19:10;;;;;;;1.15;1.05;;;16.50;55.00;;;;;;6155932;23;20150;-83
2024/01/01 03:21:37;;;;;;;1.38;1.27;;;16.50;55.00;;;;;;6156194;23;20656;-84
2024/01/01 03:24:03;;;;;;;1.38;1.27;;;16.50;55.00;;;;;;6133999;23;20517;-82
2024/01/01 03:26:30;;;;;;;1.20;1.10;;;16.50;55.00;;;;;;6157501;23;20634;-84
2024/01/01 03:28:56;;;;;;;1.20;1.10;;;16.50;54.90;;;;;;6107552;23;20151;-84
2024/01/01 03:31:22;;;;;;;1.30;1.20;;;16.50;55.00;;;;;;6158614;23;20143;-83
2024/01/01 03:33:50;;;;;;;1.52;1.42;;;16.50;55.00;;;;;;6158808;23;20474;-82
2024/01/01 03:36:18;;;;;;;1.60;1.30;;;16.50;55.00;;;;;;6170918;23;20212;-84
2024/01/01 03:38:44;;;;;;;1.27;1.17;;;16.50;54.90;;;;;;6113768;23;20161;-85
2024/01/01 03:41:10;;;;;;;1.30;1.20;;;16.50;54.90;;;;;;6213381;23;20166;-83
2024/01/01 03:43:35;;;;;;;1.65;1.10;;;16.50;55.00;;;;;;6188042;23;20558;-83
2024/01/01 03:48:29;;;;;;;1.55;1.20;;;16.50;54.90;;;;;;6213251;23;20252;-85
2024/01/01 03:50:54;;;;;;;1.73;1.40;;;16.50;54.90;;;;;;6138877;23;20153;-84
2024/01/01 03:53:20;;;;;;;1.27;1.17;;;16.50;54.90;;;;;;6163368;23;20150;-83
2024/01/01 03:55:46;;;;;;;1.20;1.10;;;16.50;54.90;;;;;;6182694;23;20638;-84
2024/01/01 03:58:11;;;;;;;1.50;1.27;;;16.50;54.90;;;;;;6182961;23;20521;-83
2024/01/01 04:00:37;;;;;;;1.40;1.23;;;16.50;54.80;;;;;;6181757;23;20167;-85
2024/01/01 04:03:04;;;;;;;1.60;1.42;;;16.50;54.80;;;;;;6158606;23;20151;-84
2024/01/01 04:05:31;;;;;;;1.40;1.30;;;16.60;54.80;;;;;;6107285;23;20155;-83
2024/01/01 04:07:57;;;;;;;1.23;1.13;;;16.50;54.80;;;;;;6133018;23;20162;-83
2024/01/01 04:10:23;;;;;;;1.20;1.10;;;16.50;55.60;;;;;;6182388;23;20158;-84
2024/01/01 04:12:49;;;;;;;1.30;1.20;;;16.50;54.90;;;;;;6182775;23;20135;-83
2024/01/01 04:15:15;;;;;;;1.17;1.08;;;16.50;54.90;;;;;;6157178;23;20127;-83
2024/01/01 04:17:41;;;;;;;1.33;1.23;;;16.50;54.90;;;;;;6158863;23;20147;-83
2024/01/01 04:20:10;;;;;;;1.25;1.15;;;16.50;54.70;;;;;;6157642;23;20170;-84
2024/01/01 04:22:38;;;;;;;1.10;1.00;;;16.50;54.90;;;;;;6109631;23;20479;-85
2024/01/01 04:25:04;;;;;;;1.30;1.20;;;16.50;54.90;;;;;;6183093;23;20602;-85
2024/01/01 04:27:30;;;;;;;1.52;1.40;;;16.50;54.80;;;;;;6186333;23;20205;-83
2024/01/01 04:29:56;;;;;;;1.17;1.08;;;16.50;54.70;;;;;;6138528;23;20561;-82
2024/01/01 04:32:21;;;;;;;1.60;1.20;;;16.50;54.70;;;;;;6134824;23;20332;-83
2024/01/01 04:34:48;;;;;;;1.60;1.50;;;16.50;54.90;;;;;;6135412;23;20589;-85
2024/01/01 04:37:19;;;;;;;1.60;1.30;;;16.50;54.80;;;;;;6145221;23;20222;-85
2024/01/01 04:39:44;;;;;;;1.10;1.00;;;16.50;54.90;;;;;;6122117;23;20549;-84
2024/01/01 04:42:10;;;;;;;1.20;1.08;;;16.40;54.80;;;;;;6171564;23;20134;-84
2024/01/01 04:44:36;;;;;;;1.25;1.15;;;16.50;54.80;;;;;;6147423;23;20197;-84
2024/01/01 04:47:02;;;;;;;1.30;1.20;;;16.50;54.80;;;;;;6170668;23;20136;-83
2024/01/01 04:49:28;;;;;;;1.20;1.10;;;16.50;54.70;;;;;;6171070;23;20147;-83
2024/01/01 04:51:58;;;;;;;1.30;1.20;;;16.50;54.80;;;;;;6171260;23;20137;-84
2024/01/01 04:54:24;;;;;;;1.05;0.95;;;16.50;54.80;;;;;;6134270;23;20230;-84
2024/01/01 04:56:50;;;;;;;1.60;1.33;;;16.50;54.70;;;;;;6159639;23;20131;-85
2024/01/01 04:59:17;;;;;;;1.52;1.30;;;16.50;54.70;;;;;;6160337;23;20444;-84
2024/01/01 05:01:44;;;;;;;1.50;1.40;;;16.40;54.60;;;;;;6110780;23;20191;-84
2024/01/01 05:04:10;;;;;;;1.73;1.35;;;16.50;54.80;;;;;;6109855;23;20755;-84
2024/01/01 05:06:36;;;;;;;1.52;1.30;;;16.50;54.70;;;;;;6159049;23;20143;-82
2024/01/01 05:09:02;;;;;;;1.60;1.30;;;16.50;54.60;;;;;;6160919;23;20578;-84
2024/01/01 05:11:30;;;;;;;1.45;1.20;;;16.50;54.60;;;;;;6160822;23;20162;-83
2024/01/01 05:13:56;;;;;;;1.92;1.50;;;16.50;54.70;;;;;;6087615;23;20237;-84
2024/01/01 05:16:22;;;;;;;1.25;1.15;;;16.50;54.80;;;;;;6135143;23;20551;-82
2024/01/01 05:18:48;;;;;;;1.60;1.48;;;16.50;54.80;;;;;;6135109;23;20142;-83
2024/01/01 05:21:15;;;;;;;1.52;1.20;;;16.50;54.70;;;;;;6133376;23;20248;-85
2024/01/01 05:23:41;;;;;;;1.45;1.30;;;16.50;54.70;;;;;;6109749;23;20151;-84
2024/01/01 05:26:08;;;;;;;1.35;1.25;;;16.50;54.60;;;;;;6135809;23;20142;-83
2024/01/01 05:28:34;;;;;;;1.60;1.40;;;16.50;54.70;;;;;;6141901;23;20203;-84
2024/01/01 05:31:01;;;;;;;1.55;1.20;;;16.40;54.70;;;;;;6136646;23;20139;-85
2024/01/01 05:33:26;;;;;;;1.30;1.20;;;16.50;54.70;;;;;;6133495;23;20154;-83
2024/01/01 05:35:52;;;;;;;1.40;1.20;;;16.40;54.70;;;;;;6158642;23;20210;-82
2024/01/01 05:38:20;;;;;;;1.30;1.20;;;16.40;54.70;;;;;;6134133;23;20465;-84
2024/01/01 05:40:46;;;;;;;1.58;1.48;;;16.40;54.60;;;;;;6157666;23;20286;-83
2024/01/01 05:43:12;;;;;;;1.40;1.30;;;16.30;54.70;;;;;;6157428;23;20182;-84
2024/01/01 05:45:38;;;;;;;1.50;1.17;;;16.50;54.70;;;;;;6207956;23;20697;-84
2024/01/01 05:48:04;;;;;;;1.27;1.17;;;16.40;54.60;;;;;;6186119;23;20158;-84
2024/01/01 05:50:30;;;;;;;1.25;1.15;;;16.40;55.00;;;;;;6159005;23;20230;-83
2024/01/01 05:52:56;;;;;;;1.30;1.20;;;16.40;54.60;;;;;;6158991;23;20142;-84
2024/01/01 05:55:22;;;;;;;1.33;1.10;;;16.40;54.60;;;;;;6185056;23;20181;-84
2024/01/01 05:57:49;;;;;;;1.25;1.15;;;16.40;54.70;;;;;;6159991;23;20226;-82
2024/01/01 06:00:15;;;;;;;1.70;1.50;;;16.40;54.70;;;;;;6193582;23;20198;-83
2024/01/01 06:02:43;;;;;;;1.45;1.35;;;16.40;54.70;;;;;;6185066;23;20157;-85
2024/01/01 06:05:10;;;;;;;1.25;1.15;;;16.50;54.70;;;;;;6109772;23;20665;-83
2024/01/01 06:07:36;;;;;;;1.50;1.40;;;16.50;54.60;;;;;;6085153;23;20157;-83
2024/01/01 06:10:03;;;;;;;1.92;1.48;;;16.40;54.60;;;;;;6185177;23;20217;-82
2024/01/01 06:12:30;;;;;;;1.30;1.20;;;16.50;54.80;;;;;;6183867;23;20131;-84
2024/01/01 06:14:56;;;;;;;1.48;1.38;;;16.40;54.70;;;;;;6108861;23;20563;-84
2024/01/01 06:17:26;;;;;;;1.27;1.17;;;16.40;54.60;;;;;;6158605;23;20131;-84
2024/01/01 06:19:52;;;;;;;1.42;1.33;;;16.50;54.60;;;;;;6132314;23;20232;-83
2024/01/01 06:22:18;;;;;;;1.65;1.40;;;16.40;54.60;;;;;;6183069;23;20142;-84
2024/01/01 06:24:43;;;;;;;1.30;1.15;;;16.50;54.60;;;;;;6159969;23;20285;-84
2024/01/01 06:27:09;;;;;;;1.40;1.30;;;16.50;54.60;;;;;;6163664;23;20134;-84
2024/01/01 06:29:35;;;;;;;2.03;1.55;;;16.50;54.60;;;;;;6213677;23;20126;-83
2024/01/01 06:32:02;;;;;;;1.50;1.40;;;16.40;54.60;;;;;;6139344;23;20142;-83
2024/01/01 06:34:29;;;;;;;1.50;1.40;;;16.40;54.60;;;;;;6136781;23;20151;-82
2024/01/01 06:36:54;;;;;;;1.38;1.27;;;16.40;54.70;;;;;;6162887;23;20263;-82
2024/01/01 06:39:20;;;;;;;1.40;1.30;;;16.50;54.60;;;;;;6187759;23;20138;-83
2024/01/01 06:41:46;;;;;;;1.33;1.23;;;16.40;54.50;;;;;;6214178;23;20614;-83
2024/01/01 06:44:11;;;;;;;1.48;1.20;;;16.50;54.50;;;;;;6163047;23;20153;-84
2024/01/01 06:46:40;;;;;;;1.40;1.30;;;16.50;54.50;;;;;;6153332;23;20211;-83
2024/01/01 06:49:06;;;;;;;1.38;1.27;;;16.40;54.40;;;;;;6126174;23;20155;-85
2024/01/01 06:54:04;;;;;;;1.60;1.50;;;16.40;54.60;;;;;;6183944;23;20209;-83
2024/01/01 06:56:38;;;;;;;1.42;1.33;;;16.40;54.60;;;;;;6183616;23;20439;-85
2024/01/01 06:59:04;;;;;;;1.40;1.30;;;16.40;54.60;;;;;;6109952;23;20211;-85
2024/01/01 07:01:29;;;;;;;1.40;1.20;;;16.40;54.60;;;;;;6183825;23;20170;-85
2024/01/01 07:03:55;;;;;;;1.33;1.23;;;16.40;54.60;;;;;;6159935;22;20598;-83
2024/01/01 07:06:23;;;;;;;1.27;1.17;;;16.50;54.60;;;;;;6163815;23;20181;-83
2024/01/01 07:08:49;;;;;;;1.55;1.45;;;16.40;54.40;;;;;;6089221;23;20446;-83
2024/01/01 07:11:15;;;;;;;1.30;1.20;;;16.40;54.40;;;;;;6138782;23;20153;-83
2024/01/01 07:13:41;;;;;;;1.45;1.35;;;16.40;54.40;;;;;;6163786;23;20573;-83
2024/01/01 07:16:09;;;;;;;1.45;1.35;;;16.40;54.30;;;;;;6188685;23;20173;-85
2024/01/01 07:18:35;;;;;;;1.60;1.50;;;16.50;54.10;;;;;;6187599;23;20145;-84
2024/01/01 07:21:01;;;;;;;1.20;1.10;;;16.50;54.20;;;;;;6159791;22;20257;-83
2024/01/01 07:23:27;;;;;;;1.38;1.27;;;16.60;53.80;;;;;;6186866;23;20212;-82
2024/01/01 07:25:57;;;;;;;1.58;1.48;;;16.60;53.80;;;;;;6162424;23;20153;-86
2024/01/01 07:28:25;;;;;;;1.60;1.50;;;16.60;53.70;;;;;;6087366;22;20481;-85
2024/01/01 07:30:51;;;;;;;1.33;1.10;;;16.60;53.70;;;;;;6162342;23;20150;-82
2024/01/01 07:33:17;;;;;;;1.10;1.00;;;16.60;53.70;;;;;;6162533;23;20173;-85
2024/01/01 07:35:43;;;;;;;1.35;1.25;;;16.70;53.30;;;;;;6188060;23;20554;-84
2024/01/01 07:38:09;;;;;;;1.30;1.20;;;16.70;53.50;;;;;;6187875;23;20130;-82
2024/01/01 07:40:36;;;;;;;1.55;1.20;;;16.60;53.40;;;;;;6163194;23;20253;-84
2024/01/01 07:43:12;;;;;;;1.20;1.10;;;16.60;53.50;;;;;;6126203;23;20228;-85
2024/01/01 07:45:46;;;;;;;1.70;1.40;;;16.70;53.70;;;;;;6078428;23;20939;-85
2024/01/01 07:48:12;;;;;;;1.20;1.10;;;16.70;53.50;;;;;;6078822;23;20676;-83
2024/01/01 07:50:38;;;;;;;1.13;1.02;;;16.70;53.30;;;;;;6126859;23;20152;-84
2024/01/01 07:53:04;;;;;;;1.63;1.40;;;16.60;53.40;;;;;;6126696;23;20238;-83
2024/01/01 07:55:29;;;;;;;1.42;1.20;;;16.70;53.60;;;;;;6125494;23;20205;-84
2024/01/01 07:57:55;;;;;;;1.27;1.10;;;16.60;53.30;;;;;;6152051;23;20153;-85
2024/01/01 08:00:23;;;;;;;1.23;1.13;;;16.70;53.50;;;;;;6151557;23;20175;-85
2024/01/01 08:02:49;;;;;;;1.20;1.10;;;16.60;53.20;;;;;;6127418;23;20202;-84
2024/01/01 08:05:18;;;;;;;1.30;1.20;;;16.70;53.30;;;;;;6152677;23;20563;-84
2024/01/01 08:07:47;;;;;;;1.50;1.40;;;16.70;53.10;;;;;;6127681;23;20155;-86
2024/01/01 08:10:20;;;;;;;1.35;1.25;;;16.70;52.90;;;;;;6128820;23;20619;-85
2024/01/01 08:12:45;;;;;;;1.55;1.27;;;16.70;53.10;;;;;;6104185;23;20163;-84
2024/01/01 08:15:11;;;;;;;1.40;1.10;;;16.70;53.10;;;;;;6188801;23;20154;-83
2024/01/01 08:17:37;;;;;;;1.30;1.20;;;16.70;53.00;;;;;;6214640;23;20130;-85
2024/01/01 08:20:04;;;;;;;1.05;0.95;;;16.70;53.00;;;;;;6139118;23;20176;-82
2024/01/01 08:22:30;;;;;;;1.42;1.30;;;16.60;52.90;;;;;;6163653;23;20146;-83
2024/01/01 08:24:55;;;;;;;1.42;1.20;;;16.70;53.00;;;;;;6188346;23;20138;-83
2024/01/01 08:27:24;;;;;;;1.33;1.23;;;16.70;53.00;;;;;;6163250;23;20554;-85
2024/01/01 08:29:50;;;;;;;1.30;1.20;;;16.70;53.00;;;;;;6188833;23;20201;-84
2024/01/01 08:32:17;;;;;;;1.38;1.27;;;16.70;53.10;;;;;;6215368;23;20162;-83
2024/01/01 08:34:42;;;;;;;1.60;1.50;;;16.70;53.30;;;;;;6153352;23;20156;-85
2024/01/01 08:37:17;;;;;;;1.35;1.20;;;16.70;53.10;;;;;;6152129;23;20214;-84
2024/01/01 08:39:48;;;;;;;1.35;1.20;;;16.60;53.30;;;;;;6152969;23;20158;-84
2024/01/01 08:42:20;;;;;;;1.30;1.15;;;16.70;53.00;;;;;;6103399;23;20151;-85
2024/01/01 08:44:45;;;;;;;1.30;1.20;;;16.70;53.30;;;;;;6164401;23;20656;-84
2024/01/01 08:49:47;;;;;;;1.13;1.00;;;16.70;53.20;;;;;;6205949;22;20201;-84
2024/01/01 08:52:13;;;;;;;1.08;0.98;;;16.60;53.00;;;;;;6164167;23;20443;-83
2024/01/01 08:57:29;;;;;;;1.30;1.05;;;16.70;53.10;;;;;;6185525;23;20310;-83
2024/01/01 08:59:55;;;;;;;1.27;1.17;;;16.70;53.00;;;;;;6159235;23;20190;-84
2024/01/01 09:02:23;;;;;;;1.45;1.35;;;16.70;53.20;;;;;;6133409;23;20567;-84
2024/01/01 09:04:49;;;;;;;1.10;1.00;;;16.70;53.00;;;;;;6159301;23;20147;-82
2024/01/01 09:07:14;;;;;;;1.10;1.00;;;16.70;52.90;;;;;;6158603;23;20138;-84
2024/01/01 09:09:40;;;;;;;1.35;1.20;;;16.70;53.10;;;;;;6133883;23;20536;-83
2024/01/01 09:12:07;;;;;;;1.33;1.23;;;16.60;53.20;;;;;;6159266;23;20189;-85
2024/01/01 09:14:45;;;;;;;1.40;1.30;;;16.60;53.20;;;;;;6134435;23;20527;-84
2024/01/01 09:17:23;;;;;;;1.00;0.90;;;16.70;53.90;;;;;;6109766;23;20225;-84
2024/01/01 09:19:53;;;;;;;1.30;1.20;;;16.60;53.30;;;;;;6109775;23;20487;-85
2024/01/01 09:22:23;;;;;;;1.10;1.00;;;16.60;53.20;;;;;;6109111;23;20534;-87
2024/01/01 09:24:49;;;;;;;1.50;1.20;;;16.60;53.20;;;;;;6134009;23;20150;-82
2024/01/01 09:27:22;;;;;;;1.33;1.20;;;16.60;52.90;;;;;;6185188;23;20132;-84
2024/01/01 09:29:48;;;;;;;1.33;1.23;;;16.60;52.90;;;;;;6159526;23;20551;-83
2024/01/01 09:32:13;;;;;;;1.20;1.10;;;16.60;53.20;;;;;;6185275;23;20146;-82
2024/01/01 09:34:40;;;;;;;1.13;1.02;;;16.60;53.00;;;;;;6158616;23;20154;-83
2024/01/01 09:37:06;;;;;;;1.30;1.20;;;16.70;53.10;;;;;;6158144;23;20621;-85
2024/01/01 09:42:01;;;;;;;1.10;1.00;;;16.70;52.70;;;;;;6213688;22;20208;-83
2024/01/01 09:44:32;;;;;;;1.67;1.33;;;16.60;52.80;;;;;;6164168;23;20137;-84
2024/01/01 09:47:05;;;;;;;1.13;1.08;;;16.70;52.90;;;;;;6139184;23;20146;-85
2024/01/01 09:49:36;;;;;;;1.27;1.10;;;16.60;53.10;;;;;;6140193;23;20154;-83
2024/01/01 09:52:03;;;;;;;1.33;1.17;;;16.60;53.30;;;;;;6138592;23;20150;-84
2024/01/01 09:57:04;;;;;;;1.17;1.08;;;16.70;53.10;;;;;;6210217;22;20212;-85
2024/01/01 09:59:34;;;;;;;1.60;1.50;;;16.60;53.00;;;;;;6188553;23;20156;-83
2024/01/01 10:02:06;;;;;;;1.10;1.00;;;16.60;53.10;;;;;;6163619;23;20166;-83
2024/01/01 10:04:35;;;;;;;1.20;1.08;;;16.50;52.70;;;;;;6163432;23;20157;-84
2024/01/01 10:07:01;;;;;;;1.42;1.33;;;16.60;52.90;;;;;;6113808;23;20162;-83
2024/01/01 10:09:27;;;;;;;1.35;1.00;;;16.60;53.10;;;;;;6163075;23;20636;-83
2024/01/01 10:12:05;;;;;;;1.20;1.10;;;16.60;53.10;;;;;;6163938;23;20477;-83
2024/01/01 10:14:31;;;;;;;1.23;1.13;;;16.60;53.10;;;;;;6141660;23;20146;-84
2024/01/01 10:17:11;;;;;;;1.20;1.10;;;16.70;52.90;;;;;;6163109;23;20203;-82
2024/01/01 10:19:50;;;;;;;1.10;1.00;;;16.60;52.90;;;;;;6163269;23;20146;-82
2024/01/01 10:22:18;;;;;;;1.30;1.20;;;16.70;52.70;;;;;;6162607;23;20585;-83
2024/01/01 10:24:46;;;;;;;1.15;1.05;;;16.70;52.50;;;;;;6187552;23;20569;-83
2024/01/01 10:27:15;;;;;;;1.27;1.17;;;16.70;52.50;;;;;;6162128;23;20601;-83
2024/01/01 10:29:40;;;;;;;1.10;1.00;;;16.70;52.60;;;;;;6188688;23;20157;-86
2024/01/01 10:32:06;;;;;;;1.33;1.20;;;16.70;52.40;;;;;;6164686;23;20146;-83
2024/01/01 10:34:33;;;;;;;1.15;1.00;;;16.70;52.60;;;;;;6189259;23;20735;-83
2024/01/01 10:36:59;;;;;;;1.40;1.20;;;16.70;52.50;;;;;;6190786;23;20593;-83
2024/01/01 10:39:24;;;;;;;1.05;1.00;;;16.70;53.00;;;;;;6141381;23;20150;-82
2024/01/01 10:41:50;;;;;;;1.33;1.23;;;16.70;52.50;;;;;;6165654;23;20178;-84
2024/01/01 10:44:16;;;;;;;1.10;1.00;;;16.70;52.60;;;;;;6217225;23;20131;-83
2024/01/01 10:46:46;;;;;;;1.20;1.10;;;16.70;52.60;;;;;;6139787;22;20531;-83
2024/01/01 10:49:16;;;;;;;1.10;1.00;;;16.70;52.70;;;;;;6158198;23;20177;-82
2024/01/01 10:51:59;;;;;;;1.55;1.38;;;16.70;52.80;;;;;;6133516;23;20281;-84
2024/01/01 10:54:54;;;;;;;1.45;1.10;;;16.60;52.70;;;;;;6160202;23;20131;-82
2024/01/01 10:57:33;;;;;;;1.30;1.20;;;16.70;52.40;;;;;;6163314;23;20138;-83
2024/01/01 11:00:07;;;;;;;1.10;1.00;;;16.70;52.70;;;;;;6087901;23;20193;-83
2024/01/01 11:02:33;;;;;;;1.30;1.00;;;16.70;53.40;;;;;;6087724;23;20178;-83
2024/01/01 11:05:08;;;;;;;1.13;1.02;;;16.70;52.50;;;;;;6172343;23;20534;-83
2024/01/01 11:10:42;;;;;;;1.27;1.17;;;16.70;52.60;;;;;;6211394;22;20205;-84
2024/01/01 11:13:32;;;;;;;0.90;0.90;;;16.70;52.80;;;;;;6165715;23;20158;-84
2024/01/01 11:16:03;;;;;;;1.67;1.30;;;16.70;52.60;;;;;;6177857;23;20213;-82
2024/01/01 11:18:33;;;;;;;1.40;1.30;;;16.70;52.60;;;;;;6134606;23;20154;-83
2024/01/01 11:21:01;;;;;;;1.20;0.93;;;16.70;52.60;;;;;;6185313;23;20158;-85
2024/01/01 11:23:40;;;;;;;1.17;1.05;;;16.70;52.50;;;;;;6183933;23;20213;-83
2024/01/01 11:26:33;;;;;;;1.20;1.10;;;16.70;52.60;;;;;;6181696;23;20138;-84
2024/01/01 11:29:19;;;;;;;1.30;1.10;;;16.70;52.50;;;;;;6184176;23;20131;-84
2024/01/01 11:31:45;;;;;;;1.33;1.23;;;16.60;52.50;;;;;;6184522;23;20162;-82
2024/01/01 11:34:16;;;;;;;1.25;1.15;;;16.70;52.60;;;;;;6183808;23;20189;-82
2024/01/01 11:36:43;;;;;;;1.33;1.20;;;16.70;52.50;;;;;;6131661;23;20153;-82
2024/01/01 11:39:09;;;;;;;0.80;0.80;;;16.70;52.30;;;;;;6132000;23;20154;-82
2024/01/01 11:41:35;;;;;;;1.20;1.10;;;16.60;52.00;;;;;;6182970;23;20570;-82
2024/01/01 11:44:09;;;;;;;0.70;0.70;;;16.70;52.00;;;;;;6157845;23;20478;-83
2024/01/01 11:46:36;;;;;;;1.20;1.10;;;16.70;52.30;;;;;;6182323;23;20138;-83
2024/01/01 11:49:02;;;;;;;1.08;1.00;;;16.60;52.30;;;;;;6107581;23;20151;-83
2024/01/01 11:51:30;;;;;;;1.00;0.98;;;16.70;52.20;;;;;;6157785;23;20257;-83
2024/01/01 11:54:10;;;;;;;1.00;0.90;;;16.70;52.30;;;;;;6133415;23;20147;-83
2024/01/01 11:56:37;;;;;;;1.20;1.10;;;16.70;52.60;;;;;;6183611;23;20270;-83
2024/01/01 11:59:06;;;;;;;1.27;1.10;;;16.70;52.20;;;;;;6133834;23;20226;-82
2024/01/01 12:01:32;;;;;;;1.10;1.00;;;16.60;52.30;;;;;;6182320;23;20169;-82
2024/01/01 12:04:00;;;;;;;1.00;1.00;;;16.70;52.30;;;;;;6133202;23;20147;-85
2024/01/01 12:06:25;;;;;;;0.90;0.90;;;16.70;52.10;;;;;;6182269;23;20162;-84
2024/01/01 12:09:04;;;;;;;1.33;1.10;;;16.70;52.30;;;;;;6184432;23;20131;-82
2024/01/01 12:11:30;;;;;;;1.27;1.10;;;16.60;52.30;;;;;;6161476;22;20201;-84
2024/01/01 12:13:56;;;;;;;1.08;1.00;;;16.70;52.40;;;;;;6188150;23;20185;-83
2024/01/01 12:16:23;;;;;;;0.90;0.90;;;16.70;52.30;;;;;;6184364;23;20201;-83
2024/01/01 12:21:51;;;;;;;1.02;0.90;;;16.70;52.60;;;;;;6158852;23;20199;-83
2024/01/01 12:24:18;;;;;;;1.10;1.00;;;16.70;52.40;;;;;;6134258;23;20132;-83
2024/01/01 12:26:44;;;;;;;1.02;0.90;;;16.70;52.40;;;;;;6183620;23;20507;-82
2024/01/01 12:29:14;;;;;;;1.13;1.02;;;16.60;52.20;;;;;;6158163;23;20131;-83
2024/01/01 12:31:43;;;;;;;1.05;0.95;;;16.70;52.20;;;;;;6108641;23;20490;-82
2024/01/01 12:34:12;;;;;;;1.10;1.00;;;16.70;51.90;;;;;;6109551;23;20162;-83
2024/01/01 12:36:38;;;;;;;1.02;0.90;;;16.70;52.10;;;;;;6135376;23;20135;-83
2024/01/01 12:39:08;;;;;;;1.23;1.00;;;16.70;52.30;;;;;;6160914;23;20567;-83
2024/01/01 12:41:34;;;;;;;1.00;0.90;;;16.70;52.10;;;;;;6106922;23;20578;-82
2024/01/01 12:44:00;;;;;;;1.30;1.20;;;16.70;52.10;;;;;;6131824;23;20163;-83
2024/01/01 12:46:26;;;;;;;0.93;0.90;;;16.70;52.00;;;;;;6156972;23;20490;-84
2024/01/01 12:48:59;;;;;;;1.02;0.93;;;16.70;52.10;;;;;;6132077;23;20139;-81
2024/01/01 12:51:27;;;;;;;1.05;0.95;;;16.70;51.90;;;;;;6137801;23;20170;-86
2024/01/01 12:53:57;;;;;;;0.90;0.90;;;16.70;52.10;;;;;;6159139;23;20163;-84
2024/01/01 12:56:25;;;;;;;1.10;1.00;;;16.70;52.10;;;;;;6135553;23;20135;-84
2024/01/01 12:58:51;;;;;;;1.10;1.00;;;16.70;52.10;;;;;;6133684;23;20167;-83
2024/01/01 13:01:18;;;;;;;1.00;0.95;;;16.70;52.30;;;;;;6110608;23;20654;-85
2024/01/01 13:03:44;;;;;;;1.05;0.93;;;16.70;52.20;;;;;;6084685;23;20196;-83
2024/01/01 13:06:20;;;;;;;1.00;0.90;;;16.70;52.10;;;;;;6134734;23;20166;-83
2024/01/01 13:08:47;;;;;;;1.10;1.00;;;16.70;52.20;;;;;;6157624;23;20225;-83
2024/01/01 13:11:15;;;;;;;1.17;1.02;;;16.70;52.30;;;;;;6134654;23;20150;-82
2024/01/01 13:13:41;;;;;;;1.02;0.88;;;16.60;52.30;;;;;;6108999;23;20150;-84
2024/01/01 13:16:09;;;;;;;1.25;1.13;;;16.60;52.10;;;;;;6135093;23;20158;-83